sensor_id;sensor_type;location;lat;lon;timestamp;P1;durP1;ratioP1;P2;durP2;ratioP2
27857;SDS011;16852;51.446;6.528;2023-07-09T00:01:55;6.82;;;4.05;;
27857;SDS011;16852;51.446;6.528;2023-07-09T00:03:56;6.72;;;4.28;;
27857;SDS011;16852;51.446;6.528;2023-07-09T00:05:57;6.15;;;4.07;;
27857;SDS011;16852;51.446;6.528;2023-07-09T00:07:57;5.45;;;3.67;;
27857;SDS011;16852;51.446;6.528;2023-07-09T00:10:00;5.35;;;4.10;;
27857;SDS011;16852;51.446;6.528;2023-07-09T00:12:01;6.70;;;3.80;;
27857;SDS011;16852;51.446;6.528;2023-07-09T00:14:04;8.23;;;4.68;;
27857;SDS011;16852;51.446;6.528;2023-07-09T00:16:10;6.13;;;3.50;;
27857;SDS011;16852;51.446;6.528;2023-07-09T00:18:14;5.70;;;3.60;;
27857;SDS011;16852;51.446;6.528;2023-07-09T00:20:15;6.43;;;4.13;;
27857;SDS011;16852;51.446;6.528;2023-07-09T00:22:18;5.78;;;3.88;;
27857;SDS011;16852;51.446;6.528;2023-07-09T00:24:20;6.28;;;3.75;;
27857;SDS011;16852;51.446;6.528;2023-07-09T00:26:21;5.65;;;3.92;;
27857;SDS011;16852;51.446;6.528;2023-07-09T00:28:23;6.18;;;4.13;;
27857;SDS011;16852;51.446;6.528;2023-07-09T00:30:24;5.82;;;3.90;;
27857;SDS011;16852;51.446;6.528;2023-07-09T00:32:24;5.10;;;3.50;;
27857;SDS011;16852;51.446;6.528;2023-07-09T00:34:26;5.45;;;3.67;;
27857;SDS011;16852;51.446;6.528;2023-07-09T00:36:27;6.47;;;4.05;;
27857;SDS011;16852;51.446;6.528;2023-07-09T00:38:31;5.60;;;3.65;;
27857;SDS011;16852;51.446;6.528;2023-07-09T00:40:43;4.78;;;3.38;;
27857;SDS011;16852;51.446;6.528;2023-07-09T00:42:59;6.57;;;3.95;;
27857;SDS011;16852;51.446;6.528;2023-07-09T00:45:00;6.15;;;4.03;;
27857;SDS011;16852;51.446;6.528;2023-07-09T00:49:27;5.18;;;3.67;;
27857;SDS011;16852;51.446;6.528;2023-07-09T00:51:30;5.65;;;3.50;;
27857;SDS011;16852;51.446;6.528;2023-07-09T00:53:34;5.30;;;3.38;;
27857;SDS011;16852;51.446;6.528;2023-07-09T00:55:36;5.63;;;4.07;;
27857;SDS011;16852;51.446;6.528;2023-07-09T00:57:42;6.28;;;3.65;;
27857;SDS011;16852;51.446;6.528;2023-07-09T01:00:00;6.32;;;3.83;;
27857;SDS011;16852;51.446;6.528;2023-07-09T01:02:13;6.50;;;4.13;;
27857;SDS011;16852;51.446;6.528;2023-07-09T01:04:14;5.97;;;3.80;;
27857;SDS011;16852;51.446;6.528;2023-07-09T01:06:20;4.60;;;3.22;;
27857;SDS011;16852;51.446;6.528;2023-07-09T01:08:30;6.28;;;3.63;;
27857;SDS011;16852;51.446;6.528;2023-07-09T01:10:32;6.57;;;3.85;;
27857;SDS011;16852;51.446;6.528;2023-07-09T01:12:33;6.18;;;3.45;;
27857;SDS011;16852;51.446;6.528;2023-07-09T01:14:33;5.70;;;3.47;;
27857;SDS011;16852;51.446;6.528;2023-07-09T01:16:37;6.13;;;3.95;;
27857;SDS011;16852;51.446;6.528;2023-07-09T01:18:39;5.80;;;3.70;;
27857;SDS011;16852;51.446;6.528;2023-07-09T01:20:40;4.90;;;3.70;;
27857;SDS011;16852;51.446;6.528;2023-07-09T01:22:41;4.97;;;3.60;;
27857;SDS011;16852;51.446;6.528;2023-07-09T01:27:01;4.82;;;3.17;;
27857;SDS011;16852;51.446;6.528;2023-07-09T01:29:02;4.00;;;3.10;;
27857;SDS011;16852;51.446;6.528;2023-07-09T01:31:03;6.82;;;3.40;;
27857;SDS011;16852;51.446;6.528;2023-07-09T01:33:04;5.82;;;3.70;;
27857;SDS011;16852;51.446;6.528;2023-07-09T01:35:06;6.45;;;3.58;;
27857;SDS011;16852;51.446;6.528;2023-07-09T01:37:07;6.82;;;3.92;;
27857;SDS011;16852;51.446;6.528;2023-07-09T01:39:07;5.32;;;3.35;;
27857;SDS011;16852;51.446;6.528;2023-07-09T01:41:08;6.30;;;4.25;;
27857;SDS011;16852;51.446;6.528;2023-07-09T01:43:14;6.35;;;3.65;;
27857;SDS011;16852;51.446;6.528;2023-07-09T01:45:14;5.70;;;3.28;;
27857;SDS011;16852;51.446;6.528;2023-07-09T01:47:16;6.10;;;3.58;;
27857;SDS011;16852;51.446;6.528;2023-07-09T01:49:17;5.22;;;3.70;;
27857;SDS011;16852;51.446;6.528;2023-07-09T01:51:18;4.55;;;3.10;;
27857;SDS011;16852;51.446;6.528;2023-07-09T01:53:22;4.88;;;3.22;;
27857;SDS011;16852;51.446;6.528;2023-07-09T01:55:25;5.80;;;3.88;;
27857;SDS011;16852;51.446;6.528;2023-07-09T01:57:27;5.22;;;3.40;;
27857;SDS011;16852;51.446;6.528;2023-07-09T01:59:40;5.40;;;3.72;;
27857;SDS011;16852;51.446;6.528;2023-07-09T02:01:41;5.35;;;3.70;;
27857;SDS011;16852;51.446;6.528;2023-07-09T02:03:42;5.70;;;3.63;;
27857;SDS011;16852;51.446;6.528;2023-07-09T02:05:43;5.30;;;3.28;;
27857;SDS011;16852;51.446;6.528;2023-07-09T02:07:43;5.63;;;3.90;;
27857;SDS011;16852;51.446;6.528;2023-07-09T02:09:44;6.70;;;3.85;;
27857;SDS011;16852;51.446;6.528;2023-07-09T02:11:45;5.78;;;3.67;;
27857;SDS011;16852;51.446;6.528;2023-07-09T02:13:46;6.38;;;3.88;;
27857;SDS011;16852;51.446;6.528;2023-07-09T02:15:46;4.72;;;3.67;;
27857;SDS011;16852;51.446;6.528;2023-07-09T02:17:47;7.07;;;3.92;;
27857;SDS011;16852;51.446;6.528;2023-07-09T02:19:47;5.75;;;3.70;;
27857;SDS011;16852;51.446;6.528;2023-07-09T02:21:48;4.63;;;3.50;;
27857;SDS011;16852;51.446;6.528;2023-07-09T02:23:48;6.13;;;3.75;;
27857;SDS011;16852;51.446;6.528;2023-07-09T02:25:50;5.07;;;3.40;;
27857;SDS011;16852;51.446;6.528;2023-07-09T02:27:50;6.00;;;3.83;;
27857;SDS011;16852;51.446;6.528;2023-07-09T02:29:51;6.05;;;3.97;;
27857;SDS011;16852;51.446;6.528;2023-07-09T02:31:52;6.60;;;3.97;;
27857;SDS011;16852;51.446;6.528;2023-07-09T02:33:56;6.35;;;3.88;;
27857;SDS011;16852;51.446;6.528;2023-07-09T02:35:56;7.43;;;4.30;;
27857;SDS011;16852;51.446;6.528;2023-07-09T02:37:57;7.57;;;4.13;;
27857;SDS011;16852;51.446;6.528;2023-07-09T02:39:58;6.30;;;3.90;;
27857;SDS011;16852;51.446;6.528;2023-07-09T02:41:59;8.10;;;3.97;;
27857;SDS011;16852;51.446;6.528;2023-07-09T02:43:59;7.72;;;3.80;;
27857;SDS011;16852;51.446;6.528;2023-07-09T02:46:00;5.97;;;4.18;;
27857;SDS011;16852;51.446;6.528;2023-07-09T02:48:00;6.20;;;3.70;;
27857;SDS011;16852;51.446;6.528;2023-07-09T02:50:01;5.45;;;3.60;;
27857;SDS011;16852;51.446;6.528;2023-07-09T02:52:03;7.65;;;3.85;;
27857;SDS011;16852;51.446;6.528;2023-07-09T02:54:04;5.68;;;3.70;;
27857;SDS011;16852;51.446;6.528;2023-07-09T02:56:05;4.88;;;3.47;;
27857;SDS011;16852;51.446;6.528;2023-07-09T02:58:06;5.35;;;3.47;;
27857;SDS011;16852;51.446;6.528;2023-07-09T03:00:07;5.93;;;4.00;;
27857;SDS011;16852;51.446;6.528;2023-07-09T03:02:08;8.63;;;3.85;;
27857;SDS011;16852;51.446;6.528;2023-07-09T03:04:09;6.90;;;4.15;;
27857;SDS011;16852;51.446;6.528;2023-07-09T03:06:10;4.90;;;3.60;;
27857;SDS011;16852;51.446;6.528;2023-07-09T03:08:10;4.90;;;3.47;;
27857;SDS011;16852;51.446;6.528;2023-07-09T03:10:11;5.85;;;3.50;;
27857;SDS011;16852;51.446;6.528;2023-07-09T03:12:12;6.28;;;3.90;;
27857;SDS011;16852;51.446;6.528;2023-07-09T03:14:12;6.55;;;4.20;;
27857;SDS011;16852;51.446;6.528;2023-07-09T03:16:13;6.38;;;4.00;;
27857;SDS011;16852;51.446;6.528;2023-07-09T03:18:15;6.05;;;3.80;;
27857;SDS011;16852;51.446;6.528;2023-07-09T03:20:15;6.60;;;4.15;;
27857;SDS011;16852;51.446;6.528;2023-07-09T03:22:16;8.07;;;4.22;;
27857;SDS011;16852;51.446;6.528;2023-07-09T03:24:16;7.47;;;4.05;;
27857;SDS011;16852;51.446;6.528;2023-07-09T03:26:18;7.47;;;4.00;;
27857;SDS011;16852;51.446;6.528;2023-07-09T03:28:19;7.18;;;4.18;;
27857;SDS011;16852;51.446;6.528;2023-07-09T03:30:19;5.20;;;3.65;;
27857;SDS011;16852;51.446;6.528;2023-07-09T03:32:20;5.75;;;3.72;;
27857;SDS011;16852;51.446;6.528;2023-07-09T03:34:20;6.95;;;4.57;;
27857;SDS011;16852;51.446;6.528;2023-07-09T03:36:21;5.90;;;3.95;;
27857;SDS011;16852;51.446;6.528;2023-07-09T03:38:22;6.07;;;4.13;;
27857;SDS011;16852;51.446;6.528;2023-07-09T03:40:23;7.00;;;4.40;;
27857;SDS011;16852;51.446;6.528;2023-07-09T03:42:23;6.50;;;4.38;;
27857;SDS011;16852;51.446;6.528;2023-07-09T03:44:25;5.90;;;4.18;;
27857;SDS011;16852;51.446;6.528;2023-07-09T03:46:25;7.85;;;4.43;;
27857;SDS011;16852;51.446;6.528;2023-07-09T03:48:26;6.43;;;4.07;;
27857;SDS011;16852;51.446;6.528;2023-07-09T03:50:27;7.10;;;4.78;;
27857;SDS011;16852;51.446;6.528;2023-07-09T03:52:27;4.85;;;3.95;;
27857;SDS011;16852;51.446;6.528;2023-07-09T03:54:28;6.45;;;4.22;;
27857;SDS011;16852;51.446;6.528;2023-07-09T03:56:29;6.28;;;4.22;;
27857;SDS011;16852;51.446;6.528;2023-07-09T03:58:29;5.22;;;4.00;;
27857;SDS011;16852;51.446;6.528;2023-07-09T04:00:30;6.25;;;4.32;;
27857;SDS011;16852;51.446;6.528;2023-07-09T04:02:31;7.07;;;4.80;;
27857;SDS011;16852;51.446;6.528;2023-07-09T04:04:32;8.48;;;4.82;;
27857;SDS011;16852;51.446;6.528;2023-07-09T04:06:33;6.25;;;4.13;;
27857;SDS011;16852;51.446;6.528;2023-07-09T04:08:33;5.82;;;4.13;;
27857;SDS011;16852;51.446;6.528;2023-07-09T04:10:34;6.03;;;4.10;;
27857;SDS011;16852;51.446;6.528;2023-07-09T04:12:34;5.95;;;4.05;;
27857;SDS011;16852;51.446;6.528;2023-07-09T04:14:36;6.40;;;4.20;;
27857;SDS011;16852;51.446;6.528;2023-07-09T04:16:37;6.20;;;4.35;;
27857;SDS011;16852;51.446;6.528;2023-07-09T04:18:38;6.65;;;4.65;;
27857;SDS011;16852;51.446;6.528;2023-07-09T04:20:38;11.13;;;4.82;;
27857;SDS011;16852;51.446;6.528;2023-07-09T04:22:39;6.82;;;4.45;;
27857;SDS011;16852;51.446;6.528;2023-07-09T04:24:39;8.15;;;5.03;;
27857;SDS011;16852;51.446;6.528;2023-07-09T04:26:40;7.03;;;4.68;;
27857;SDS011;16852;51.446;6.528;2023-07-09T04:28:40;8.27;;;4.95;;
27857;SDS011;16852;51.446;6.528;2023-07-09T04:30:46;10.88;;;5.47;;
27857;SDS011;16852;51.446;6.528;2023-07-09T04:32:49;9.68;;;5.63;;
27857;SDS011;16852;51.446;6.528;2023-07-09T04:34:50;8.35;;;5.10;;
27857;SDS011;16852;51.446;6.528;2023-07-09T04:36:50;8.15;;;4.78;;
27857;SDS011;16852;51.446;6.528;2023-07-09T04:38:51;7.93;;;4.95;;
27857;SDS011;16852;51.446;6.528;2023-07-09T04:40:52;9.18;;;5.25;;
27857;SDS011;16852;51.446;6.528;2023-07-09T04:42:52;8.13;;;4.82;;
27857;SDS011;16852;51.446;6.528;2023-07-09T04:44:53;9.05;;;4.80;;
27857;SDS011;16852;51.446;6.528;2023-07-09T04:46:53;9.98;;;4.45;;
27857;SDS011;16852;51.446;6.528;2023-07-09T04:48:54;8.63;;;4.90;;
27857;SDS011;16852;51.446;6.528;2023-07-09T04:50:55;8.98;;;5.20;;
27857;SDS011;16852;51.446;6.528;2023-07-09T04:52:56;6.78;;;4.55;;
27857;SDS011;16852;51.446;6.528;2023-07-09T04:54:56;9.18;;;5.40;;
27857;SDS011;16852;51.446;6.528;2023-07-09T04:56:57;7.47;;;4.70;;
27857;SDS011;16852;51.446;6.528;2023-07-09T04:58:58;9.27;;;5.35;;
27857;SDS011;16852;51.446;6.528;2023-07-09T05:00:59;9.88;;;4.80;;
27857;SDS011;16852;51.446;6.528;2023-07-09T05:03:00;8.23;;;5.32;;
27857;SDS011;16852;51.446;6.528;2023-07-09T05:05:00;8.95;;;5.07;;
27857;SDS011;16852;51.446;6.528;2023-07-09T05:07:01;9.38;;;5.05;;
27857;SDS011;16852;51.446;6.528;2023-07-09T05:09:02;9.32;;;4.88;;
27857;SDS011;16852;51.446;6.528;2023-07-09T05:11:02;8.77;;;5.75;;
27857;SDS011;16852;51.446;6.528;2023-07-09T05:13:03;9.73;;;5.53;;
27857;SDS011;16852;51.446;6.528;2023-07-09T05:15:04;8.25;;;4.78;;
27857;SDS011;16852;51.446;6.528;2023-07-09T05:17:05;8.60;;;5.25;;
27857;SDS011;16852;51.446;6.528;2023-07-09T05:19:07;10.00;;;5.43;;
27857;SDS011;16852;51.446;6.528;2023-07-09T05:21:08;8.85;;;4.82;;
27857;SDS011;16852;51.446;6.528;2023-07-09T05:23:09;7.00;;;4.57;;
27857;SDS011;16852;51.446;6.528;2023-07-09T05:25:10;9.05;;;4.70;;
27857;SDS011;16852;51.446;6.528;2023-07-09T05:27:12;9.25;;;5.45;;
27857;SDS011;16852;51.446;6.528;2023-07-09T05:29:12;8.52;;;4.60;;
27857;SDS011;16852;51.446;6.528;2023-07-09T05:31:14;8.98;;;5.20;;
27857;SDS011;16852;51.446;6.528;2023-07-09T05:33:17;7.72;;;4.18;;
27857;SDS011;16852;51.446;6.528;2023-07-09T05:35:21;7.13;;;4.57;;
27857;SDS011;16852;51.446;6.528;2023-07-09T05:37:22;8.80;;;4.65;;
27857;SDS011;16852;51.446;6.528;2023-07-09T05:39:22;7.40;;;5.05;;
27857;SDS011;16852;51.446;6.528;2023-07-09T05:41:23;8.35;;;4.85;;
27857;SDS011;16852;51.446;6.528;2023-07-09T05:43:23;8.40;;;4.88;;
27857;SDS011;16852;51.446;6.528;2023-07-09T05:45:24;8.63;;;4.25;;
27857;SDS011;16852;51.446;6.528;2023-07-09T05:47:25;7.82;;;4.55;;
27857;SDS011;16852;51.446;6.528;2023-07-09T05:49:26;9.00;;;4.50;;
27857;SDS011;16852;51.446;6.528;2023-07-09T05:51:27;8.80;;;5.20;;
27857;SDS011;16852;51.446;6.528;2023-07-09T05:53:28;7.13;;;4.50;;
27857;SDS011;16852;51.446;6.528;2023-07-09T05:55:29;10.23;;;4.85;;
27857;SDS011;16852;51.446;6.528;2023-07-09T05:57:29;8.18;;;4.13;;
27857;SDS011;16852;51.446;6.528;2023-07-09T05:59:30;8.75;;;4.68;;
27857;SDS011;16852;51.446;6.528;2023-07-09T06:01:31;7.93;;;4.40;;
27857;SDS011;16852;51.446;6.528;2023-07-09T06:03:32;6.38;;;4.53;;
27857;SDS011;16852;51.446;6.528;2023-07-09T06:05:33;8.07;;;4.82;;
27857;SDS011;16852;51.446;6.528;2023-07-09T06:07:34;6.45;;;4.15;;
27857;SDS011;16852;51.446;6.528;2023-07-09T06:09:35;9.05;;;4.70;;
27857;SDS011;16852;51.446;6.528;2023-07-09T06:11:36;6.65;;;4.45;;
27857;SDS011;16852;51.446;6.528;2023-07-09T06:13:37;6.70;;;4.20;;
27857;SDS011;16852;51.446;6.528;2023-07-09T06:15:37;12.05;;;4.78;;
27857;SDS011;16852;51.446;6.528;2023-07-09T06:17:38;6.97;;;4.47;;
27857;SDS011;16852;51.446;6.528;2023-07-09T06:19:38;6.75;;;4.43;;
27857;SDS011;16852;51.446;6.528;2023-07-09T06:21:39;6.45;;;4.20;;
27857;SDS011;16852;51.446;6.528;2023-07-09T06:23:40;9.27;;;4.63;;
27857;SDS011;16852;51.446;6.528;2023-07-09T06:25:40;9.50;;;4.75;;
27857;SDS011;16852;51.446;6.528;2023-07-09T06:27:42;5.97;;;4.10;;
27857;SDS011;16852;51.446;6.528;2023-07-09T06:29:44;7.53;;;4.47;;
27857;SDS011;16852;51.446;6.528;2023-07-09T06:31:44;5.45;;;3.90;;
27857;SDS011;16852;51.446;6.528;2023-07-09T06:33:45;5.97;;;3.88;;
27857;SDS011;16852;51.446;6.528;2023-07-09T06:36:00;6.88;;;4.65;;
27857;SDS011;16852;51.446;6.528;2023-07-09T06:38:01;8.85;;;4.68;;
27857;SDS011;16852;51.446;6.528;2023-07-09T06:40:02;7.78;;;4.63;;
27857;SDS011;16852;51.446;6.528;2023-07-09T06:42:03;7.18;;;4.32;;
27857;SDS011;16852;51.446;6.528;2023-07-09T06:44:07;10.38;;;4.78;;
27857;SDS011;16852;51.446;6.528;2023-07-09T06:46:10;7.22;;;4.13;;
27857;SDS011;16852;51.446;6.528;2023-07-09T06:48:11;5.95;;;4.22;;
27857;SDS011;16852;51.446;6.528;2023-07-09T06:50:12;7.85;;;4.68;;
27857;SDS011;16852;51.446;6.528;2023-07-09T06:52:13;6.57;;;4.20;;
27857;SDS011;16852;51.446;6.528;2023-07-09T06:54:13;6.50;;;4.38;;
27857;SDS011;16852;51.446;6.528;2023-07-09T06:56:15;9.57;;;4.47;;
27857;SDS011;16852;51.446;6.528;2023-07-09T06:58:16;6.30;;;4.10;;
27857;SDS011;16852;51.446;6.528;2023-07-09T07:00:17;7.95;;;4.28;;
27857;SDS011;16852;51.446;6.528;2023-07-09T07:02:19;6.43;;;3.90;;
27857;SDS011;16852;51.446;6.528;2023-07-09T07:04:19;6.90;;;4.10;;
27857;SDS011;16852;51.446;6.528;2023-07-09T07:06:20;7.07;;;4.45;;
27857;SDS011;16852;51.446;6.528;2023-07-09T07:08:21;6.65;;;4.32;;
27857;SDS011;16852;51.446;6.528;2023-07-09T07:10:24;5.65;;;3.83;;
27857;SDS011;16852;51.446;6.528;2023-07-09T07:12:27;7.18;;;3.70;;
27857;SDS011;16852;51.446;6.528;2023-07-09T07:16:30;7.38;;;4.30;;
27857;SDS011;16852;51.446;6.528;2023-07-09T07:18:30;5.40;;;3.75;;
27857;SDS011;16852;51.446;6.528;2023-07-09T07:20:31;6.97;;;4.32;;
27857;SDS011;16852;51.446;6.528;2023-07-09T07:22:32;6.05;;;4.25;;
27857;SDS011;16852;51.446;6.528;2023-07-09T07:24:32;7.60;;;4.05;;
27857;SDS011;16852;51.446;6.528;2023-07-09T07:26:33;6.15;;;3.95;;
27857;SDS011;16852;51.446;6.528;2023-07-09T07:28:37;5.47;;;3.45;;
27857;SDS011;16852;51.446;6.528;2023-07-09T07:30:37;6.47;;;4.05;;
27857;SDS011;16852;51.446;6.528;2023-07-09T07:32:38;6.00;;;3.83;;
27857;SDS011;16852;51.446;6.528;2023-07-09T07:34:44;5.95;;;3.97;;
27857;SDS011;16852;51.446;6.528;2023-07-09T07:36:47;7.63;;;4.35;;
27857;SDS011;16852;51.446;6.528;2023-07-09T07:38:47;8.00;;;4.45;;
27857;SDS011;16852;51.446;6.528;2023-07-09T07:40:48;6.20;;;3.88;;
27857;SDS011;16852;51.446;6.528;2023-07-09T07:42:48;5.50;;;3.88;;
27857;SDS011;16852;51.446;6.528;2023-07-09T07:44:49;4.20;;;3.42;;
27857;SDS011;16852;51.446;6.528;2023-07-09T07:46:50;7.05;;;4.10;;
27857;SDS011;16852;51.446;6.528;2023-07-09T07:48:50;7.97;;;3.90;;
27857;SDS011;16852;51.446;6.528;2023-07-09T07:50:58;6.38;;;3.70;;
27857;SDS011;16852;51.446;6.528;2023-07-09T07:53:01;6.35;;;3.78;;
27857;SDS011;16852;51.446;6.528;2023-07-09T07:55:05;6.40;;;3.50;;
27857;SDS011;16852;51.446;6.528;2023-07-09T07:57:08;6.00;;;3.88;;
27857;SDS011;16852;51.446;6.528;2023-07-09T07:59:10;6.28;;;4.03;;
27857;SDS011;16852;51.446;6.528;2023-07-09T08:01:11;5.88;;;4.00;;
27857;SDS011;16852;51.446;6.528;2023-07-09T08:03:11;5.90;;;4.05;;
27857;SDS011;16852;51.446;6.528;2023-07-09T08:05:12;4.88;;;3.28;;
27857;SDS011;16852;51.446;6.528;2023-07-09T08:07:12;5.95;;;3.33;;
27857;SDS011;16852;51.446;6.528;2023-07-09T08:09:14;5.75;;;3.47;;
27857;SDS011;16852;51.446;6.528;2023-07-09T08:11:15;4.93;;;3.65;;
27857;SDS011;16852;51.446;6.528;2023-07-09T08:13:17;6.07;;;3.63;;
27857;SDS011;16852;51.446;6.528;2023-07-09T08:15:18;4.15;;;3.25;;
27857;SDS011;16852;51.446;6.528;2023-07-09T08:17:19;5.30;;;3.70;;
27857;SDS011;16852;51.446;6.528;2023-07-09T08:19:20;5.47;;;3.10;;
27857;SDS011;16852;51.446;6.528;2023-07-09T08:21:20;4.45;;;3.63;;
27857;SDS011;16852;51.446;6.528;2023-07-09T08:23:21;5.20;;;3.50;;
27857;SDS011;16852;51.446;6.528;2023-07-09T08:25:21;4.32;;;3.50;;
27857;SDS011;16852;51.446;6.528;2023-07-09T08:27:22;7.15;;;3.78;;
27857;SDS011;16852;51.446;6.528;2023-07-09T08:29:23;5.63;;;3.67;;
27857;SDS011;16852;51.446;6.528;2023-07-09T08:31:24;5.95;;;3.80;;
27857;SDS011;16852;51.446;6.528;2023-07-09T08:33:25;13.85;;;4.18;;
27857;SDS011;16852;51.446;6.528;2023-07-09T08:35:25;7.40;;;3.58;;
27857;SDS011;16852;51.446;6.528;2023-07-09T08:37:26;8.80;;;4.20;;
27857;SDS011;16852;51.446;6.528;2023-07-09T08:39:26;5.40;;;3.40;;
27857;SDS011;16852;51.446;6.528;2023-07-09T08:41:38;4.70;;;3.40;;
27857;SDS011;16852;51.446;6.528;2023-07-09T08:43:50;5.43;;;3.60;;
27857;SDS011;16852;51.446;6.528;2023-07-09T08:46:10;8.30;;;3.78;;
27857;SDS011;16852;51.446;6.528;2023-07-09T08:50:38;6.13;;;3.58;;
27857;SDS011;16852;51.446;6.528;2023-07-09T08:52:42;5.90;;;3.10;;
27857;SDS011;16852;51.446;6.528;2023-07-09T08:54:44;7.43;;;3.70;;
27857;SDS011;16852;51.446;6.528;2023-07-09T08:56:48;7.57;;;4.00;;
27857;SDS011;16852;51.446;6.528;2023-07-09T08:58:49;6.77;;;3.77;;
27857;SDS011;16852;51.446;6.528;2023-07-09T09:00:56;5.72;;;3.45;;
27857;SDS011;16852;51.446;6.528;2023-07-09T09:05:08;5.93;;;3.42;;
27857;SDS011;16852;51.446;6.528;2023-07-09T09:07:36;5.05;;;3.50;;
27857;SDS011;16852;51.446;6.528;2023-07-09T09:09:44;4.65;;;3.15;;
27857;SDS011;16852;51.446;6.528;2023-07-09T09:14:25;5.53;;;3.42;;
27857;SDS011;16852;51.446;6.528;2023-07-09T09:16:38;6.30;;;2.88;;
27857;SDS011;16852;51.446;6.528;2023-07-09T09:18:43;4.38;;;3.17;;
27857;SDS011;16852;51.446;6.528;2023-07-09T09:20:47;6.57;;;3.83;;
27857;SDS011;16852;51.446;6.528;2023-07-09T09:22:58;5.47;;;3.30;;
27857;SDS011;16852;51.446;6.528;2023-07-09T09:27:21;5.93;;;3.20;;
27857;SDS011;16852;51.446;6.528;2023-07-09T09:29:23;6.78;;;3.72;;
27857;SDS011;16852;51.446;6.528;2023-07-09T09:31:25;5.65;;;3.35;;
27857;SDS011;16852;51.446;6.528;2023-07-09T09:33:36;7.88;;;3.63;;
27857;SDS011;16852;51.446;6.528;2023-07-09T09:35:44;4.93;;;3.30;;
27857;SDS011;16852;51.446;6.528;2023-07-09T09:37:51;6.88;;;3.50;;
27857;SDS011;16852;51.446;6.528;2023-07-09T09:39:56;5.65;;;3.10;;
27857;SDS011;16852;51.446;6.528;2023-07-09T09:41:58;5.32;;;3.50;;
27857;SDS011;16852;51.446;6.528;2023-07-09T09:43:59;6.93;;;3.28;;
27857;SDS011;16852;51.446;6.528;2023-07-09T09:45:59;5.78;;;3.17;;
27857;SDS011;16852;51.446;6.528;2023-07-09T09:48:10;6.38;;;3.55;;
27857;SDS011;16852;51.446;6.528;2023-07-09T09:50:31;4.60;;;3.08;;
27857;SDS011;16852;51.446;6.528;2023-07-09T09:52:32;7.47;;;2.70;;
27857;SDS011;16852;51.446;6.528;2023-07-09T09:54:34;5.47;;;3.33;;
27857;SDS011;16852;51.446;6.528;2023-07-09T09:56:35;5.00;;;3.30;;
27857;SDS011;16852;51.446;6.528;2023-07-09T09:58:39;6.20;;;3.47;;
27857;SDS011;16852;51.446;6.528;2023-07-09T10:00:46;6.13;;;3.40;;
27857;SDS011;16852;51.446;6.528;2023-07-09T10:02:48;6.13;;;3.60;;
27857;SDS011;16852;51.446;6.528;2023-07-09T10:04:49;5.30;;;3.63;;
27857;SDS011;16852;51.446;6.528;2023-07-09T10:06:51;10.27;;;3.30;;
27857;SDS011;16852;51.446;6.528;2023-07-09T10:08:58;7.43;;;3.17;;
27857;SDS011;16852;51.446;6.528;2023-07-09T10:11:18;7.63;;;3.55;;
27857;SDS011;16852;51.446;6.528;2023-07-09T10:13:28;5.00;;;3.30;;
27857;SDS011;16852;51.446;6.528;2023-07-09T10:15:51;4.45;;;2.67;;
27857;SDS011;16852;51.446;6.528;2023-07-09T10:18:30;4.18;;;3.13;;
27857;SDS011;16852;51.446;6.528;2023-07-09T10:21:10;3.72;;;2.80;;
27857;SDS011;16852;51.446;6.528;2023-07-09T10:28:04;5.78;;;3.42;;
27857;SDS011;16852;51.446;6.528;2023-07-09T10:30:30;5.70;;;3.10;;
27857;SDS011;16852;51.446;6.528;2023-07-09T10:35:15;4.63;;;3.20;;
27857;SDS011;16852;51.446;6.528;2023-07-09T10:37:38;3.85;;;3.03;;
27857;SDS011;16852;51.446;6.528;2023-07-09T10:39:56;3.13;;;2.72;;
27857;SDS011;16852;51.446;6.528;2023-07-09T10:41:59;5.70;;;3.65;;
27857;SDS011;16852;51.446;6.528;2023-07-09T10:44:15;5.38;;;3.20;;
27857;SDS011;16852;51.446;6.528;2023-07-09T10:46:27;6.03;;;3.33;;
27857;SDS011;16852;51.446;6.528;2023-07-09T10:50:44;5.32;;;3.22;;
27857;SDS011;16852;51.446;6.528;2023-07-09T10:52:52;4.13;;;2.95;;
27857;SDS011;16852;51.446;6.528;2023-07-09T10:55:31;5.90;;;3.20;;
27857;SDS011;16852;51.446;6.528;2023-07-09T10:57:29;5.88;;;3.60;;
27857;SDS011;16852;51.446;6.528;2023-07-09T10:59:31;5.03;;;3.20;;
27857;SDS011;16852;51.446;6.528;2023-07-09T11:01:37;6.28;;;3.38;;
27857;SDS011;16852;51.446;6.528;2023-07-09T11:03:44;6.28;;;3.70;;
27857;SDS011;16852;51.446;6.528;2023-07-09T11:05:52;4.00;;;3.03;;
27857;SDS011;16852;51.446;6.528;2023-07-09T11:07:58;3.70;;;2.70;;
27857;SDS011;16852;51.446;6.528;2023-07-09T11:10:27;9.07;;;3.45;;
27857;SDS011;16852;51.446;6.528;2023-07-09T11:12:42;5.60;;;3.15;;
27857;SDS011;16852;51.446;6.528;2023-07-09T11:14:47;5.47;;;3.15;;
27857;SDS011;16852;51.446;6.528;2023-07-09T11:16:56;6.75;;;3.53;;
27857;SDS011;16852;51.446;6.528;2023-07-09T11:21:03;5.13;;;3.10;;
27857;SDS011;16852;51.446;6.528;2023-07-09T11:23:06;6.80;;;3.33;;
27857;SDS011;16852;51.446;6.528;2023-07-09T11:25:43;5.75;;;3.13;;
27857;SDS011;16852;51.446;6.528;2023-07-09T11:27:48;4.78;;;3.65;;
27857;SDS011;16852;51.446;6.528;2023-07-09T11:32:07;4.60;;;3.05;;
27857;SDS011;16852;51.446;6.528;2023-07-09T11:36:13;8.10;;;3.85;;
27857;SDS011;16852;51.446;6.528;2023-07-09T11:38:24;6.07;;;3.33;;
27857;SDS011;16852;51.446;6.528;2023-07-09T11:40:25;6.15;;;3.50;;
27857;SDS011;16852;51.446;6.528;2023-07-09T11:42:33;6.10;;;3.53;;
27857;SDS011;16852;51.446;6.528;2023-07-09T11:44:45;5.63;;;3.03;;
27857;SDS011;16852;51.446;6.528;2023-07-09T11:46:57;5.93;;;3.60;;
27857;SDS011;16852;51.446;6.528;2023-07-09T11:49:12;5.82;;;3.45;;
27857;SDS011;16852;51.446;6.528;2023-07-09T11:51:15;5.28;;;3.63;;
27857;SDS011;16852;51.446;6.528;2023-07-09T11:53:26;5.70;;;3.17;;
27857;SDS011;16852;51.446;6.528;2023-07-09T11:55:42;6.43;;;3.20;;
27857;SDS011;16852;51.446;6.528;2023-07-09T11:57:48;4.70;;;3.15;;
27857;SDS011;16852;51.446;6.528;2023-07-09T12:00:03;4.53;;;2.85;;
27857;SDS011;16852;51.446;6.528;2023-07-09T12:02:04;4.53;;;3.13;;
27857;SDS011;16852;51.446;6.528;2023-07-09T12:04:05;8.38;;;3.47;;
27857;SDS011;16852;51.446;6.528;2023-07-09T12:08:38;4.70;;;3.20;;
27857;SDS011;16852;51.446;6.528;2023-07-09T12:10:41;3.83;;;2.85;;
27857;SDS011;16852;51.446;6.528;2023-07-09T12:14:44;3.42;;;2.65;;
27857;SDS011;16852;51.446;6.528;2023-07-09T12:16:45;5.95;;;3.22;;
27857;SDS011;16852;51.446;6.528;2023-07-09T12:18:48;7.82;;;3.40;;
27857;SDS011;16852;51.446;6.528;2023-07-09T12:20:49;3.80;;;2.92;;
27857;SDS011;16852;51.446;6.528;2023-07-09T12:22:52;5.85;;;3.10;;
27857;SDS011;16852;51.446;6.528;2023-07-09T12:24:53;6.72;;;3.10;;
27857;SDS011;16852;51.446;6.528;2023-07-09T12:26:58;6.00;;;2.93;;
27857;SDS011;16852;51.446;6.528;2023-07-09T12:29:00;7.47;;;3.30;;
27857;SDS011;16852;51.446;6.528;2023-07-09T12:31:01;4.28;;;3.25;;
27857;SDS011;16852;51.446;6.528;2023-07-09T12:33:06;4.57;;;2.80;;
27857;SDS011;16852;51.446;6.528;2023-07-09T12:35:11;7.50;;;3.80;;
27857;SDS011;16852;51.446;6.528;2023-07-09T12:37:14;4.05;;;3.28;;
27857;SDS011;16852;51.446;6.528;2023-07-09T12:39:18;4.18;;;2.80;;
27857;SDS011;16852;51.446;6.528;2023-07-09T12:41:35;3.38;;;2.85;;
27857;SDS011;16852;51.446;6.528;2023-07-09T12:43:43;5.57;;;2.85;;
27857;SDS011;16852;51.446;6.528;2023-07-09T12:45:44;4.80;;;3.03;;
27857;SDS011;16852;51.446;6.528;2023-07-09T12:47:46;4.45;;;2.97;;
27857;SDS011;16852;51.446;6.528;2023-07-09T12:49:48;4.45;;;2.78;;
27857;SDS011;16852;51.446;6.528;2023-07-09T12:51:58;3.78;;;3.10;;
27857;SDS011;16852;51.446;6.528;2023-07-09T12:56:04;6.22;;;3.00;;
27857;SDS011;16852;51.446;6.528;2023-07-09T12:58:20;4.70;;;3.05;;
27857;SDS011;16852;51.446;6.528;2023-07-09T13:00:30;12.57;;;3.30;;
27857;SDS011;16852;51.446;6.528;2023-07-09T13:02:36;4.05;;;3.17;;
27857;SDS011;16852;51.446;6.528;2023-07-09T13:04:38;5.45;;;2.95;;